Time;durP1;ratioP1;P1;durP2;ratioP2;P2;SDS_P1;SDS_P2;PMS_P1;PMS_P2;Temp;Humidity;BMP_temperature;BMP_pressure;BME280_temperature;BME280_humidity;BME280_pressure;Samples;Min_cycle;Max_cycle;Signal;HPM_P1;HPM_P2
2022/11/27 00:01:26;;;;;;;35.10;13.20;;;;;;;;;;5113712;28;20112;-65
2022/11/27 00:03:54;;;;;;;22.10;10.90;;;;;;;;;;5098257;28;20453;-65
2022/11/27 00:06:23;;;;;;;24.60;10.68;;;;;;;;;;5116423;28;20074;-65
2022/11/27 00:08:51;;;;;;;21.85;11.18;;;;;;;;;;5098100;28;20044;-65
2022/11/27 00:11:22;;;;;;;19.35;11.07;;;;;;;;;;5097700;28;20109;-64
2022/11/27 00:13:50;;;;;;;20.20;10.70;;;;;;;;;;5115904;28;20054;-65
2022/11/27 00:16:18;;;;;;;18.48;10.38;;;;;;;;;;5115761;28;20048;-65
2022/11/27 00:18:46;;;;;;;20.13;10.80;;;;;;;;;;5097641;28;20051;-65
2022/11/27 00:21:16;;;;;;;17.65;9.90;;;;;;;;;;5115631;28;20446;-65
2022/11/27 00:23:43;;;;;;;17.40;10.30;;;;;;;;;;5115574;28;20499;-65
2022/11/27 00:26:11;;;;;;;18.55;10.38;;;;;;;;;;5115527;28;20096;-65
2022/11/27 00:28:39;;;;;;;14.80;8.88;;;;;;;;;;5115752;28;20089;-65
2022/11/27 00:31:08;;;;;;;14.38;9.10;;;;;;;;;;5115566;28;20063;-65
2022/11/27 00:33:36;;;;;;;14.25;8.85;;;;;;;;;;5097291;28;20475;-65
2022/11/27 00:36:04;;;;;;;11.55;7.45;;;;;;;;;;5115441;28;20497;-65
2022/11/27 00:38:32;;;;;;;12.00;7.60;;;;;;;;;;5115527;28;20543;-65
2022/11/27 00:41:06;;;;;;;12.43;8.20;;;;;;;;;;5115214;28;20084;-64
2022/11/27 00:43:34;;;;;;;12.15;7.97;;;;;;;;;;5115423;28;20071;-64
2022/11/27 00:46:10;;;;;;;13.43;8.10;;;;;;;;;;5115191;28;20067;-65
2022/11/27 00:48:38;;;;;;;10.98;7.15;;;;;;;;;;5097405;28;20071;-65
2022/11/27 00:51:07;;;;;;;11.27;7.05;;;;;;;;;;5114967;28;20051;-65
2022/11/27 00:53:34;;;;;;;9.85;6.55;;;;;;;;;;5115305;28;20040;-65
2022/11/27 00:56:02;;;;;;;10.00;6.70;;;;;;;;;;5115095;28;20118;-65
2022/11/27 00:58:30;;;;;;;11.40;7.25;;;;;;;;;;5115164;28;20031;-65
2022/11/27 01:00:58;;;;;;;9.68;6.43;;;;;;;;;;5115106;28;20556;-65
2022/11/27 01:03:26;;;;;;;9.40;6.45;;;;;;;;;;5114954;28;20093;-65
2022/11/27 01:05:54;;;;;;;9.10;6.40;;;;;;;;;;5114903;28;20048;-65
2022/11/27 01:08:22;;;;;;;11.48;6.40;;;;;;;;;;5096595;28;20981;-65
2022/11/27 01:10:50;;;;;;;10.00;6.53;;;;;;;;;;5114641;28;20054;-65
2022/11/27 01:13:25;;;;;;;9.82;6.65;;;;;;;;;;5114922;28;20039;-65
2022/11/27 01:16:00;;;;;;;10.50;6.63;;;;;;;;;;5114891;28;20051;-65
2022/11/27 01:18:28;;;;;;;10.38;6.90;;;;;;;;;;5096887;28;20495;-65
2022/11/27 01:20:55;;;;;;;11.18;7.57;;;;;;;;;;5114676;28;20062;-65
2022/11/27 01:23:23;;;;;;;13.07;7.50;;;;;;;;;;5114766;28;20122;-65
2022/11/27 01:25:52;;;;;;;13.43;8.35;;;;;;;;;;5114611;28;20048;-65
2022/11/27 01:28:21;;;;;;;13.35;8.32;;;;;;;;;;5114541;28;20382;-65
2022/11/27 01:30:48;;;;;;;12.75;8.15;;;;;;;;;;5114334;28;20063;-65
2022/11/27 01:33:16;;;;;;;15.27;9.32;;;;;;;;;;5114315;28;20044;-65
2022/11/27 01:35:52;;;;;;;16.00;10.10;;;;;;;;;;5114526;28;20058;-65
2022/11/27 01:38:20;;;;;;;15.20;9.82;;;;;;;;;;5114425;28;20040;-65
2022/11/27 01:40:47;;;;;;;17.73;10.35;;;;;;;;;;5114214;28;20032;-65
2022/11/27 01:43:15;;;;;;;16.58;9.70;;;;;;;;;;5114300;28;20040;-66
2022/11/27 01:45:44;;;;;;;15.57;9.85;;;;;;;;;;5114362;28;20071;-65
2022/11/27 01:48:12;;;;;;;16.50;10.07;;;;;;;;;;5114237;28;20097;-65
2022/11/27 01:50:40;;;;;;;17.88;10.55;;;;;;;;;;5114291;28;20036;-65
2022/11/27 01:53:17;;;;;;;17.63;10.80;;;;;;;;;;5096069;28;20047;-64
2022/11/27 01:55:48;;;;;;;20.75;11.82;;;;;;;;;;5114199;28;20396;-64
2022/11/27 01:58:21;;;;;;;18.35;10.57;;;;;;;;;;5114011;28;20054;-65
2022/11/27 02:00:49;;;;;;;22.92;12.50;;;;;;;;;;5113786;28;20119;-65
2022/11/27 02:03:16;;;;;;;25.20;13.25;;;;;;;;;;5113714;28;20036;-64
2022/11/27 02:05:44;;;;;;;22.88;13.27;;;;;;;;;;5113854;28;20050;-65
2022/11/27 02:08:14;;;;;;;24.88;13.95;;;;;;;;;;5113881;28;20039;-65
2022/11/27 02:10:50;;;;;;;23.65;13.63;;;;;;;;;;5114034;28;20049;-65
2022/11/27 02:13:17;;;;;;;24.20;13.38;;;;;;;;;;5114026;28;20042;-65
2022/11/27 02:15:57;;;;;;;23.40;13.32;;;;;;;;;;5113363;28;20047;-65
2022/11/27 02:18:38;;;;;;;23.52;12.57;;;;;;;;;;5113613;28;20438;-65
2022/11/27 02:21:13;;;;;;;21.95;12.40;;;;;;;;;;5095708;28;20051;-65
2022/11/27 02:24:01;;;;;;;19.85;11.65;;;;;;;;;;5112833;28;20040;-65
2022/11/27 02:26:35;;;;;;;21.85;12.05;;;;;;;;;;5113339;28;20043;-65
2022/11/27 02:29:03;;;;;;;24.30;12.52;;;;;;;;;;5113760;28;20431;-65
2022/11/27 02:31:33;;;;;;;22.95;11.63;;;;;;;;;;5113409;28;20043;-65
2022/11/27 02:34:07;;;;;;;22.10;12.27;;;;;;;;;;5095092;28;20043;-65
2022/11/27 02:36:37;;;;;;;21.33;12.15;;;;;;;;;;5113620;28;20104;-65
2022/11/27 02:39:08;;;;;;;22.17;11.70;;;;;;;;;;5113488;28;20088;-65
2022/11/27 02:41:56;;;;;;;21.73;11.75;;;;;;;;;;5113210;28;20046;-65
2022/11/27 02:44:25;;;;;;;20.80;11.60;;;;;;;;;;5113327;28;20043;-65
2022/11/27 02:46:53;;;;;;;21.33;11.15;;;;;;;;;;5113198;28;20046;-65
2022/11/27 02:49:22;;;;;;;21.05;11.25;;;;;;;;;;5113140;28;20040;-65
2022/11/27 02:51:51;;;;;;;18.98;10.45;;;;;;;;;;5113108;28;20045;-65
2022/11/27 02:54:22;;;;;;;18.55;10.73;;;;;;;;;;5095084;28;20071;-65
2022/11/27 02:56:51;;;;;;;16.80;9.73;;;;;;;;;;5113103;28;20512;-65
2022/11/27 02:59:19;;;;;;;16.27;9.35;;;;;;;;;;5112993;28;20039;-65
2022/11/27 03:01:52;;;;;;;16.83;10.13;;;;;;;;;;5094693;28;20496;-65
2022/11/27 03:04:24;;;;;;;17.83;9.50;;;;;;;;;;5113053;28;20682;-65
2022/11/27 03:06:54;;;;;;;17.35;9.98;;;;;;;;;;5112933;28;20059;-65
2022/11/27 03:09:24;;;;;;;15.13;9.20;;;;;;;;;;5112785;28;20035;-65
2022/11/27 03:11:52;;;;;;;16.90;9.70;;;;;;;;;;5113041;28;20047;-64
2022/11/27 03:14:23;;;;;;;19.73;10.52;;;;;;;;;;5112766;28;20044;-65
2022/11/27 03:16:50;;;;;;;17.83;9.93;;;;;;;;;;5112510;28;20082;-64
2022/11/27 03:19:29;;;;;;;18.45;10.30;;;;;;;;;;5112784;28;20036;-64
2022/11/27 03:22:01;;;;;;;17.45;9.70;;;;;;;;;;5112626;28;20457;-65
2022/11/27 03:24:29;;;;;;;17.80;10.52;;;;;;;;;;5112597;28;20088;-65
2022/11/27 03:26:57;;;;;;;16.58;9.65;;;;;;;;;;5112544;28;20104;-65
2022/11/27 03:29:34;;;;;;;16.38;9.82;;;;;;;;;;5112637;28;20040;-65
2022/11/27 03:32:03;;;;;;;16.20;9.20;;;;;;;;;;5094584;28;20523;-65
2022/11/27 03:34:31;;;;;;;16.17;9.15;;;;;;;;;;5112503;28;20101;-64
2022/11/27 03:36:58;;;;;;;16.10;9.30;;;;;;;;;;5114815;28;20164;-65
2022/11/27 03:39:26;;;;;;;13.73;8.57;;;;;;;;;;5116774;28;20100;-65
2022/11/27 03:41:57;;;;;;;14.48;9.05;;;;;;;;;;5097993;28;20062;-65
2022/11/27 03:44:27;;;;;;;15.75;9.35;;;;;;;;;;5116451;28;20115;-64
2022/11/27 03:47:10;;;;;;;15.43;9.30;;;;;;;;;;5116636;28;20043;-64
2022/11/27 03:49:52;;;;;;;15.80;9.30;;;;;;;;;;5098413;28;20066;-64
2022/11/27 03:52:25;;;;;;;16.67;10.20;;;;;;;;;;5081485;28;20126;-65
2022/11/27 03:54:58;;;;;;;17.63;10.32;;;;;;;;;;5116354;28;20040;-65
2022/11/27 03:57:34;;;;;;;14.55;9.02;;;;;;;;;;5098490;28;20043;-65
2022/11/27 04:00:04;;;;;;;18.58;10.10;;;;;;;;;;5116365;28;20043;-65
2022/11/27 04:02:42;;;;;;;19.33;11.35;;;;;;;;;;5116466;28;20044;-65
2022/11/27 04:05:10;;;;;;;19.05;11.05;;;;;;;;;;5098251;28;20043;-65
2022/11/27 04:07:38;;;;;;;19.02;11.27;;;;;;;;;;5116158;28;20123;-65
2022/11/27 04:10:06;;;;;;;17.30;10.35;;;;;;;;;;5116078;28;20035;-64
2022/11/27 04:12:33;;;;;;;20.60;12.05;;;;;;;;;;5116162;28;20036;-65
2022/11/27 04:15:00;;;;;;;16.00;10.05;;;;;;;;;;5116045;28;20045;-65
2022/11/27 04:17:28;;;;;;;18.38;10.90;;;;;;;;;;5115713;28;20052;-65
2022/11/27 04:19:55;;;;;;;17.75;10.65;;;;;;;;;;5097488;28;20493;-65
2022/11/27 04:22:23;;;;;;;20.55;11.00;;;;;;;;;;5115756;28;20039;-65
2022/11/27 04:24:50;;;;;;;17.92;10.73;;;;;;;;;;5115842;28;20039;-65
2022/11/27 04:27:18;;;;;;;20.67;11.23;;;;;;;;;;5115662;28;20051;-65
2022/11/27 04:29:45;;;;;;;22.63;12.93;;;;;;;;;;5115813;28;20039;-65
2022/11/27 04:32:13;;;;;;;23.90;11.93;;;;;;;;;;5115689;28;20039;-65
2022/11/27 04:34:40;;;;;;;21.58;12.15;;;;;;;;;;5115558;28;20028;-65
2022/11/27 04:37:08;;;;;;;22.35;12.00;;;;;;;;;;5097806;28;20413;-65
2022/11/27 04:39:36;;;;;;;21.83;12.95;;;;;;;;;;5115649;28;20044;-65
2022/11/27 04:42:03;;;;;;;25.65;14.55;;;;;;;;;;5115369;28;20043;-65
2022/11/27 04:44:31;;;;;;;24.10;12.68;;;;;;;;;;5115430;28;20043;-65
2022/11/27 04:46:58;;;;;;;24.58;13.05;;;;;;;;;;5114825;28;20122;-65
2022/11/27 04:49:26;;;;;;;29.00;13.25;;;;;;;;;;5115327;28;20036;-65
2022/11/27 04:51:53;;;;;;;23.88;14.15;;;;;;;;;;5115239;28;20069;-65
2022/11/27 04:54:21;;;;;;;22.90;13.43;;;;;;;;;;5115546;28;20039;-65
2022/11/27 04:56:48;;;;;;;48.35;17.58;;;;;;;;;;5115140;28;20122;-65
2022/11/27 04:59:16;;;;;;;255.07;53.95;;;;;;;;;;5115156;28;20069;-65
2022/11/27 05:01:43;;;;;;;27.60;14.55;;;;;;;;;;5115069;28;20430;-65
2022/11/27 05:04:11;;;;;;;24.25;13.45;;;;;;;;;;5096941;28;20489;-65
2022/11/27 05:06:38;;;;;;;23.08;13.40;;;;;;;;;;5115189;28;20094;-65
2022/11/27 05:09:05;;;;;;;22.02;12.35;;;;;;;;;;5114994;28;20040;-65
2022/11/27 05:11:33;;;;;;;24.30;13.57;;;;;;;;;;5114819;28;20501;-65
2022/11/27 05:14:16;;;;;;;26.50;14.32;;;;;;;;;;5114782;28;20042;-65
2022/11/27 05:16:45;;;;;;;27.20;14.30;;;;;;;;;;5114639;28;20047;-65
2022/11/27 05:19:13;;;;;;;27.73;14.50;;;;;;;;;;5114681;28;20042;-65
2022/11/27 05:21:41;;;;;;;29.27;15.93;;;;;;;;;;5114674;28;20074;-65
2022/11/27 05:24:09;;;;;;;28.23;16.63;;;;;;;;;;5096397;28;20066;-65
2022/11/27 05:26:36;;;;;;;28.90;15.85;;;;;;;;;;5114468;28;20043;-65
2022/11/27 05:29:05;;;;;;;27.58;16.15;;;;;;;;;;5114735;28;20070;-65
2022/11/27 05:31:32;;;;;;;38.08;18.02;;;;;;;;;;5114449;28;20039;-65
2022/11/27 05:34:00;;;;;;;33.67;18.63;;;;;;;;;;5114851;28;20040;-65
2022/11/27 05:36:27;;;;;;;27.90;16.13;;;;;;;;;;5114420;28;20500;-65
2022/11/27 05:38:55;;;;;;;26.05;14.65;;;;;;;;;;5114368;28;20031;-65
2022/11/27 05:41:23;;;;;;;27.83;15.50;;;;;;;;;;5114236;28;20036;-65
2022/11/27 05:43:50;;;;;;;26.80;15.35;;;;;;;;;;5114378;28;20560;-65
2022/11/27 05:46:20;;;;;;;25.27;14.73;;;;;;;;;;5114367;28;20043;-65
2022/11/27 05:48:47;;;;;;;28.77;14.93;;;;;;;;;;5114377;28;20077;-65
2022/11/27 05:51:15;;;;;;;25.80;14.38;;;;;;;;;;5114133;28;20036;-64
2022/11/27 05:53:43;;;;;;;27.52;14.93;;;;;;;;;;5114182;28;20063;-65
2022/11/27 05:56:11;;;;;;;24.50;15.10;;;;;;;;;;5093867;28;20116;-65
2022/11/27 05:58:39;;;;;;;28.58;15.98;;;;;;;;;;5092831;28;20044;-65
2022/11/27 06:01:07;;;;;;;23.90;15.05;;;;;;;;;;5093525;28;20555;-65
2022/11/27 06:03:37;;;;;;;23.92;14.73;;;;;;;;;;5093592;28;20067;-65
2022/11/27 06:06:22;;;;;;;19.10;11.90;;;;;;;;;;5093541;28;20064;-65
2022/11/27 06:08:50;;;;;;;18.40;11.88;;;;;;;;;;5075603;28;20105;-65
2022/11/27 06:11:19;;;;;;;21.17;14.02;;;;;;;;;;5093374;28;20036;-65
2022/11/27 06:13:47;;;;;;;19.30;13.13;;;;;;;;;;5075785;28;20047;-65
2022/11/27 06:16:19;;;;;;;19.67;12.68;;;;;;;;;;5113046;28;20051;-65
2022/11/27 06:18:53;;;;;;;21.13;13.25;;;;;;;;;;5113737;28;20040;-65
2022/11/27 06:21:22;;;;;;;19.27;13.10;;;;;;;;;;5113214;28;20046;-65
2022/11/27 06:23:52;;;;;;;19.65;12.85;;;;;;;;;;5113583;28;20039;-65
2022/11/27 06:26:21;;;;;;;19.08;12.65;;;;;;;;;;5113418;28;20110;-65
2022/11/27 06:28:49;;;;;;;17.85;12.50;;;;;;;;;;5113410;28;20047;-65
2022/11/27 06:31:18;;;;;;;18.02;12.70;;;;;;;;;;5113325;28;20039;-65
2022/11/27 06:33:47;;;;;;;15.85;11.15;;;;;;;;;;5113208;28;20044;-65
2022/11/27 06:36:14;;;;;;;17.15;12.55;;;;;;;;;;5095348;28;20146;-65
2022/11/27 06:38:42;;;;;;;16.13;12.00;;;;;;;;;;5113069;28;20550;-65
2022/11/27 06:41:12;;;;;;;18.02;12.93;;;;;;;;;;5095009;28;20028;-65
2022/11/27 06:43:39;;;;;;;21.83;14.20;;;;;;;;;;5113111;28;20048;-65
2022/11/27 06:46:07;;;;;;;16.65;11.20;;;;;;;;;;5113114;28;20036;-65
2022/11/27 06:48:35;;;;;;;17.15;11.75;;;;;;;;;;5113421;28;20035;-65
2022/11/27 06:51:03;;;;;;;17.85;12.15;;;;;;;;;;5112649;28;20036;-66
2022/11/27 06:53:31;;;;;;;19.85;14.02;;;;;;;;;;5112759;28;20043;-64
2022/11/27 06:55:59;;;;;;;26.15;18.05;;;;;;;;;;5112702;28;20052;-61
2022/11/27 06:58:26;;;;;;;23.10;14.88;;;;;;;;;;5112471;28;20138;-60
2022/11/27 07:00:58;;;;;;;14.60;10.75;;;;;;;;;;5095387;28;20035;-60
2022/11/27 07:03:25;;;;;;;15.32;10.68;;;;;;;;;;5112955;28;20043;-60
2022/11/27 07:05:53;;;;;;;11.52;8.93;;;;;;;;;;5113025;28;20389;-61
2022/11/27 07:08:21;;;;;;;10.75;7.53;;;;;;;;;;5094614;28;20385;-60
2022/11/27 07:10:48;;;;;;;13.40;9.10;;;;;;;;;;5116910;28;20059;-60
2022/11/27 07:13:16;;;;;;;12.30;8.77;;;;;;;;;;5119851;28;20044;-61
2022/11/27 07:15:44;;;;;;;13.73;9.23;;;;;;;;;;5119455;28;20047;-61
2022/11/27 07:18:11;;;;;;;10.75;7.90;;;;;;;;;;5101181;28;20046;-61
2022/11/27 07:20:39;;;;;;;11.80;8.73;;;;;;;;;;5119574;28;20039;-60
2022/11/27 07:23:06;;;;;;;14.30;11.50;;;;;;;;;;5119420;28;20088;-60
2022/11/27 07:25:33;;;;;;;13.95;10.50;;;;;;;;;;5119557;28;20485;-60
2022/11/27 07:28:01;;;;;;;11.88;8.38;;;;;;;;;;5119553;28;20043;-60
2022/11/27 07:30:28;;;;;;;11.00;8.25;;;;;;;;;;5119641;28;20164;-60
2022/11/27 07:32:56;;;;;;;11.40;7.85;;;;;;;;;;5119167;28;20043;-61
2022/11/27 07:35:23;;;;;;;11.82;7.88;;;;;;;;;;5118712;28;20036;-60
2022/11/27 07:37:51;;;;;;;11.70;8.23;;;;;;;;;;5119127;28;20032;-60
2022/11/27 07:40:18;;;;;;;14.45;10.20;;;;;;;;;;5118602;28;20139;-60
2022/11/27 07:42:46;;;;;;;13.30;9.65;;;;;;;;;;5118687;28;20463;-60
2022/11/27 07:45:16;;;;;;;14.38;10.43;;;;;;;;;;5118321;28;20497;-61
2022/11/27 07:47:44;;;;;;;12.85;9.07;;;;;;;;;;5118494;28;20044;-63
2022/11/27 07:50:11;;;;;;;15.40;9.95;;;;;;;;;;5119125;28;20036;-60
2022/11/27 07:52:39;;;;;;;14.55;9.98;;;;;;;;;;5118988;28;20120;-60
2022/11/27 07:55:09;;;;;;;13.63;9.55;;;;;;;;;;5119546;28;20043;-61
2022/11/27 07:57:36;;;;;;;16.75;10.70;;;;;;;;;;5119368;28;20040;-60
2022/11/27 08:00:04;;;;;;;15.23;9.75;;;;;;;;;;5119595;28;20122;-60
2022/11/27 08:02:32;;;;;;;16.80;10.75;;;;;;;;;;5119510;28;20048;-60
2022/11/27 08:04:59;;;;;;;13.98;9.93;;;;;;;;;;5119384;28;20066;-60
2022/11/27 08:07:30;;;;;;;14.57;9.77;;;;;;;;;;5119265;28;20048;-60
2022/11/27 08:09:57;;;;;;;15.07;9.40;;;;;;;;;;5119201;28;20036;-60
2022/11/27 08:12:25;;;;;;;14.20;9.43;;;;;;;;;;5119194;28;20039;-61
2022/11/27 08:14:53;;;;;;;16.48;10.10;;;;;;;;;;5119010;28;20604;-61
2022/11/27 08:17:20;;;;;;;16.00;9.50;;;;;;;;;;5118874;28;20405;-61
2022/11/27 08:19:48;;;;;;;16.02;10.40;;;;;;;;;;5119056;28;20043;-61
2022/11/27 08:22:18;;;;;;;16.10;10.15;;;;;;;;;;5116455;28;20042;-61
2022/11/27 08:24:47;;;;;;;15.52;10.73;;;;;;;;;;5115845;28;20043;-61
2022/11/27 08:27:15;;;;;;;17.50;11.00;;;;;;;;;;5115242;28;20039;-61
2022/11/27 08:29:42;;;;;;;16.20;10.90;;;;;;;;;;5097807;28;20048;-61
2022/11/27 08:32:10;;;;;;;17.25;11.65;;;;;;;;;;5097196;28;20046;-61
2022/11/27 08:34:37;;;;;;;21.50;13.27;;;;;;;;;;5115606;28;20081;-62
2022/11/27 08:37:06;;;;;;;19.40;13.13;;;;;;;;;;5115933;28;20393;-67
2022/11/27 08:39:33;;;;;;;18.83;12.55;;;;;;;;;;5115497;28;20059;-63
2022/11/27 08:42:01;;;;;;;18.65;12.70;;;;;;;;;;5115309;28;20044;-62
2022/11/27 08:44:28;;;;;;;19.27;12.98;;;;;;;;;;5097405;28;20050;-62
2022/11/27 08:46:56;;;;;;;24.02;15.82;;;;;;;;;;5115329;28;20103;-63
2022/11/27 08:49:23;;;;;;;25.15;15.95;;;;;;;;;;5115572;28;20046;-63
2022/11/27 08:51:51;;;;;;;25.65;16.35;;;;;;;;;;5097260;28;20067;-63
2022/11/27 08:54:18;;;;;;;25.25;16.17;;;;;;;;;;5115215;28;20069;-62
2022/11/27 08:56:46;;;;;;;29.75;17.90;;;;;;;;;;5115316;28;20067;-65
2022/11/27 08:59:13;;;;;;;24.85;17.05;;;;;;;;;;5115089;28;20039;-65
2022/11/27 09:01:41;;;;;;;27.60;18.60;;;;;;;;;;5115099;28;20043;-64
2022/11/27 09:04:08;;;;;;;29.90;19.50;;;;;;;;;;5115082;28;20069;-64
2022/11/27 09:06:36;;;;;;;28.52;19.38;;;;;;;;;;5096841;28;20056;-65
2022/11/27 09:09:04;;;;;;;30.17;19.98;;;;;;;;;;5112167;28;20475;-64
2022/11/27 09:11:33;;;;;;;32.13;19.50;;;;;;;;;;5114454;28;20080;-64
2022/11/27 09:14:02;;;;;;;30.65;19.95;;;;;;;;;;5114772;28;20031;-64
2022/11/27 09:16:29;;;;;;;30.00;19.25;;;;;;;;;;5100380;28;20083;-64
2022/11/27 09:18:57;;;;;;;30.10;18.92;;;;;;;;;;5103438;28;20035;-65
2022/11/27 09:21:31;;;;;;;25.75;17.98;;;;;;;;;;5114497;28;20488;-64
2022/11/27 09:24:00;;;;;;;25.83;17.85;;;;;;;;;;5104679;28;20097;-64
2022/11/27 09:26:28;;;;;;;23.35;16.05;;;;;;;;;;5095669;28;20554;-64
2022/11/27 09:28:57;;;;;;;23.15;15.70;;;;;;;;;;5109211;28;20054;-64
2022/11/27 09:31:25;;;;;;;26.75;16.33;;;;;;;;;;5103548;28;20463;-64
2022/11/27 09:33:53;;;;;;;22.90;15.10;;;;;;;;;;5111668;28;20031;-63
2022/11/27 09:36:22;;;;;;;22.75;14.98;;;;;;;;;;5108514;28;20073;-64
2022/11/27 09:38:49;;;;;;;24.60;14.70;;;;;;;;;;5111920;28;20039;-63
2022/11/27 09:41:19;;;;;;;24.95;14.63;;;;;;;;;;5112590;28;20123;-64
2022/11/27 09:43:55;;;;;;;22.05;14.75;;;;;;;;;;5103658;28;20039;-63
2022/11/27 09:46:30;;;;;;;22.98;16.45;;;;;;;;;;5112527;28;20474;-63
2022/11/27 09:49:00;;;;;;;26.35;17.65;;;;;;;;;;5113836;28;20067;-63
2022/11/27 09:51:30;;;;;;;25.40;15.68;;;;;;;;;;5111918;28;20092;-64
2022/11/27 09:54:01;;;;;;;26.15;18.08;;;;;;;;;;5094065;28;20130;-64
2022/11/27 09:56:29;;;;;;;24.73;16.38;;;;;;;;;;5113118;28;20122;-64
2022/11/27 09:58:58;;;;;;;27.83;17.27;;;;;;;;;;5095787;28;20081;-65
2022/11/27 10:01:28;;;;;;;29.63;18.83;;;;;;;;;;5113664;28;20135;-64
2022/11/27 10:04:09;;;;;;;28.00;17.42;;;;;;;;;;5113418;28;20065;-64
2022/11/27 10:06:42;;;;;;;25.50;15.93;;;;;;;;;;5113652;28;20074;-64
2022/11/27 10:09:36;;;;;;;30.52;18.52;;;;;;;;;;5113488;28;20047;-64
2022/11/27 10:12:13;;;;;;;29.80;17.23;;;;;;;;;;5058092;28;20602;-64
2022/11/27 10:14:50;;;;;;;23.83;16.10;;;;;;;;;;5095291;28;20047;-64
2022/11/27 10:17:20;;;;;;;23.80;15.57;;;;;;;;;;5103450;28;20048;-64
2022/11/27 10:20:06;;;;;;;21.85;14.80;;;;;;;;;;5104634;28;20052;-63
2022/11/27 10:22:43;;;;;;;21.92;14.20;;;;;;;;;;5112763;28;20038;-64
2022/11/27 10:25:10;;;;;;;39.33;23.45;;;;;;;;;;5113385;28;20039;-65
2022/11/27 10:27:43;;;;;;;35.53;19.45;;;;;;;;;;5113238;28;20088;-64
2022/11/27 10:30:20;;;;;;;28.90;17.15;;;;;;;;;;5113238;28;20039;-64
2022/11/27 10:32:50;;;;;;;23.58;15.00;;;;;;;;;;5099543;28;20107;-64
2022/11/27 10:35:30;;;;;;;22.38;14.63;;;;;;;;;;5113044;28;20048;-63
2022/11/27 10:37:58;;;;;;;21.63;14.45;;;;;;;;;;5099458;28;20075;-64
2022/11/27 10:40:36;;;;;;;25.13;15.35;;;;;;;;;;5095869;28;20431;-64
2022/11/27 10:43:09;;;;;;;29.23;17.38;;;;;;;;;;5112876;28;20044;-64
2022/11/27 10:45:44;;;;;;;23.38;16.25;;;;;;;;;;5112571;28;20057;-65
2022/11/27 10:48:12;;;;;;;26.55;16.92;;;;;;;;;;5099671;28;20092;-64
2022/11/27 10:50:40;;;;;;;25.25;16.30;;;;;;;;;;5113115;28;20063;-65
2022/11/27 10:53:10;;;;;;;25.50;16.02;;;;;;;;;;5107734;28;20048;-64
2022/11/27 10:56:04;;;;;;;25.70;16.13;;;;;;;;;;5092647;28;20036;-64
2022/11/27 10:58:32;;;;;;;25.73;16.25;;;;;;;;;;5077461;28;20055;-64
2022/11/27 11:01:00;;;;;;;27.05;16.67;;;;;;;;;;5112518;28;20043;-65
2022/11/27 11:03:28;;;;;;;30.00;17.50;;;;;;;;;;5099107;28;20452;-65
2022/11/27 11:06:00;;;;;;;31.85;18.55;;;;;;;;;;5112743;28;20039;-65
2022/11/27 11:08:47;;;;;;;29.20;18.10;;;;;;;;;;5112695;28;20040;-65
2022/11/27 11:11:24;;;;;;;26.40;16.88;;;;;;;;;;5098427;28;20044;-66
2022/11/27 11:13:52;;;;;;;25.10;16.10;;;;;;;;;;5112448;28;20481;-65
2022/11/27 11:16:23;;;;;;;27.40;16.70;;;;;;;;;;5108762;28;20116;-65
2022/11/27 11:18:56;;;;;;;28.27;16.30;;;;;;;;;;5098171;28;20081;-65
2022/11/27 11:21:32;;;;;;;27.88;17.27;;;;;;;;;;5110236;28;20096;-65
2022/11/27 11:24:18;;;;;;;22.50;14.77;;;;;;;;;;5108167;28;20046;-65
2022/11/27 11:26:48;;;;;;;25.85;16.13;;;;;;;;;;5109954;28;20048;-65
2022/11/27 11:29:26;;;;;;;21.95;14.88;;;;;;;;;;5112244;28;20081;-65
2022/11/27 11:31:55;;;;;;;33.83;21.48;;;;;;;;;;5112606;28;20489;-65
2022/11/27 11:34:25;;;;;;;29.50;17.92;;;;;;;;;;5094202;28;20114;-65
2022/11/27 11:37:04;;;;;;;27.00;16.38;;;;;;;;;;5112303;28;20045;-65
2022/11/27 11:39:33;;;;;;;21.73;14.77;;;;;;;;;;5112451;28;20067;-65
2022/11/27 11:42:07;;;;;;;21.70;14.40;;;;;;;;;;5111786;28;20048;-65
2022/11/27 11:44:37;;;;;;;24.35;15.38;;;;;;;;;;5111841;28;20046;-71
2022/11/27 11:47:05;;;;;;;25.33;15.48;;;;;;;;;;5093660;28;20123;-65
2022/11/27 11:49:34;;;;;;;26.30;16.23;;;;;;;;;;5112179;28;20043;-65
2022/11/27 11:52:01;;;;;;;25.05;15.98;;;;;;;;;;5094171;28;20048;-65
2022/11/27 11:54:41;;;;;;;21.58;15.10;;;;;;;;;;5111913;28;20524;-66
2022/11/27 11:57:29;;;;;;;24.95;16.83;;;;;;;;;;5112524;28;20067;-67
2022/11/27 12:00:09;;;;;;;24.05;15.70;;;;;;;;;;5056885;28;20051;-65
2022/11/27 12:02:46;;;;;;;25.70;15.52;;;;;;;;;;5113674;28;20063;-64
2022/11/27 12:05:26;;;;;;;23.23;15.73;;;;;;;;;;5112906;28;20410;-65
2022/11/27 12:08:13;;;;;;;23.42;15.52;;;;;;;;;;5080228;28;20439;-65
2022/11/27 12:10:51;;;;;;;25.70;16.17;;;;;;;;;;5105799;28;20035;-65
2022/11/27 12:13:37;;;;;;;25.08;16.52;;;;;;;;;;5115313;28;20035;-65
2022/11/27 12:16:25;;;;;;;23.45;16.08;;;;;;;;;;5115877;28;20044;-65
2022/11/27 12:19:28;;;;;;;25.48;15.63;;;;;;;;;;5082713;28;20075;-65
2022/11/27 12:22:14;;;;;;;25.35;16.45;;;;;;;;;;5052565;28;20087;-65
2022/11/27 12:24:59;;;;;;;22.45;15.43;;;;;;;;;;5102071;28;20048;-65
2022/11/27 12:27:33;;;;;;;23.25;15.27;;;;;;;;;;5101005;28;20040;-64
2022/11/27 12:30:00;;;;;;;24.50;16.20;;;;;;;;;;5094465;28;20587;-65
2022/11/27 12:32:28;;;;;;;22.50;15.73;;;;;;;;;;5101112;28;20042;-65
2022/11/27 12:35:05;;;;;;;27.05;17.10;;;;;;;;;;5111102;28;20039;-64
2022/11/27 12:37:55;;;;;;;23.48;15.90;;;;;;;;;;5114815;28;20070;-65
2022/11/27 12:40:22;;;;;;;25.88;16.05;;;;;;;;;;5108773;28;20061;-65
2022/11/27 12:42:53;;;;;;;26.45;16.90;;;;;;;;;;5114998;28;20066;-65
2022/11/27 12:45:22;;;;;;;27.50;16.20;;;;;;;;;;5097091;28;20453;-65
2022/11/27 12:48:05;;;;;;;27.02;16.63;;;;;;;;;;5115175;28;20031;-64
2022/11/27 12:50:32;;;;;;;30.08;18.10;;;;;;;;;;5093604;28;20044;-64
2022/11/27 12:53:08;;;;;;;28.77;18.83;;;;;;;;;;5114757;28;20040;-65
2022/11/27 12:55:36;;;;;;;26.63;17.23;;;;;;;;;;5097262;28;20053;-65
2022/11/27 12:58:05;;;;;;;28.77;17.95;;;;;;;;;;5114945;28;20481;-65
2022/11/27 13:00:36;;;;;;;30.77;18.92;;;;;;;;;;5096944;28;20111;-65
2022/11/27 13:03:06;;;;;;;24.67;16.30;;;;;;;;;;5096381;28;20046;-65
2022/11/27 13:05:47;;;;;;;27.70;16.90;;;;;;;;;;5114638;28;20039;-65
2022/11/27 13:08:23;;;;;;;28.73;19.40;;;;;;;;;;5114362;28;20058;-64
2022/11/27 13:11:12;;;;;;;28.60;17.52;;;;;;;;;;5096436;28;20100;-65
2022/11/27 13:13:43;;;;;;;28.85;17.67;;;;;;;;;;5114563;28;20043;-64
2022/11/27 13:16:17;;;;;;;25.85;15.98;;;;;;;;;;5114522;28;20052;-64
2022/11/27 13:18:48;;;;;;;27.20;17.67;;;;;;;;;;5084231;28;20048;-65
2022/11/27 13:21:22;;;;;;;26.23;17.55;;;;;;;;;;5112535;28;20055;-65
2022/11/27 13:23:53;;;;;;;25.83;16.65;;;;;;;;;;5114185;28;20071;-66
2022/11/27 13:26:34;;;;;;;28.38;19.38;;;;;;;;;;5096188;28;20050;-64
2022/11/27 13:29:03;;;;;;;38.33;24.40;;;;;;;;;;5100286;28;20032;-64
2022/11/27 13:31:32;;;;;;;82.95;53.08;;;;;;;;;;5114334;28;20035;-64
2022/11/27 13:34:02;;;;;;;34.67;24.27;;;;;;;;;;5114092;28;20047;-64
2022/11/27 13:36:40;;;;;;;26.60;17.83;;;;;;;;;;5114252;28;20126;-64
2022/11/27 13:39:21;;;;;;;28.52;18.63;;;;;;;;;;5114131;28;20497;-64
2022/11/27 13:41:49;;;;;;;28.95;19.23;;;;;;;;;;5114132;28;20040;-64
2022/11/27 13:44:24;;;;;;;32.55;21.42;;;;;;;;;;5113813;28;20054;-64
2022/11/27 13:46:54;;;;;;;;;;;;;;;;;;5096538;28;20031;-64
2022/11/27 13:49:30;;;;;;;32.33;20.30;;;;;;;;;;5114151;28;19919;-64
2022/11/27 13:52:08;;;;;;;32.75;19.70;;;;;;;;;;5114000;28;20135;-64
2022/11/27 13:54:35;;;;;;;29.48;19.17;;;;;;;;;;5113947;28;20035;-63
2022/11/27 13:57:14;;;;;;;28.40;17.92;;;;;;;;;;5113876;28;20044;-64
2022/11/27 13:59:53;;;;;;;30.80;19.65;;;;;;;;;;5100081;28;20035;-64
2022/11/27 14:02:21;;;;;;;33.47;18.83;;;;;;;;;;5113628;28;20078;-64
2022/11/27 14:04:49;;;;;;;31.55;19.25;;;;;;;;;;5113658;28;20511;-64
2022/11/27 14:07:23;;;;;;;34.65;22.35;;;;;;;;;;5113661;28;20048;-64
2022/11/27 14:09:52;;;;;;;35.97;23.60;;;;;;;;;;5098865;28;20096;-64
2022/11/27 14:12:31;;;;;;;33.55;21.50;;;;;;;;;;5113187;28;20429;-65
2022/11/27 14:15:09;;;;;;;32.67;20.48;;;;;;;;;;5110526;28;20487;-65
2022/11/27 14:17:41;;;;;;;36.03;22.02;;;;;;;;;;5108225;28;20054;-66
2022/11/27 14:20:17;;;;;;;38.30;22.77;;;;;;;;;;5111250;28;20032;-65
2022/11/27 14:23:03;;;;;;;39.40;23.38;;;;;;;;;;5109254;28;20071;-65
2022/11/27 14:25:39;;;;;;;43.03;25.17;;;;;;;;;;5112567;28;20046;-65
2022/11/27 14:28:20;;;;;;;42.55;25.02;;;;;;;;;;5077183;28;20031;-64
2022/11/27 14:30:51;;;;;;;42.72;26.73;;;;;;;;;;5107423;28;20046;-64
2022/11/27 14:33:19;;;;;;;42.35;26.92;;;;;;;;;;5112003;28;20039;-65
2022/11/27 14:35:50;;;;;;;37.53;24.48;;;;;;;;;;5112852;28;20109;-63
2022/11/27 14:38:17;;;;;;;34.67;22.00;;;;;;;;;;5112701;28;20036;-61
2022/11/27 14:40:46;;;;;;;44.58;26.95;;;;;;;;;;5095644;28;20043;-63
2022/11/27 14:43:15;;;;;;;38.97;25.92;;;;;;;;;;5112641;28;20485;-65